sensor_id;sensor_type;location;lat;lon;timestamp;temperature;humidity
63899;HTU21D;50070;-32.946;-60.652;2022-08-03T00:01:04;17.10;65.26
63899;HTU21D;50070;-32.946;-60.652;2022-08-03T00:03:31;17.00;65.82
63899;HTU21D;50070;-32.946;-60.652;2022-08-03T00:05:58;17.11;65.33
63899;HTU21D;50070;-32.946;-60.652;2022-08-03T00:08:24;16.90;66.14
63899;HTU21D;50070;-32.946;-60.652;2022-08-03T00:10:51;16.96;65.98
63899;HTU21D;50070;-32.946;-60.652;2022-08-03T00:13:18;17.07;65.53
63899;HTU21D;50070;-32.946;-60.652;2022-08-03T00:15:44;17.23;65.06
63899;HTU21D;50070;-32.946;-60.652;2022-08-03T00:18:11;17.07;65.37
63899;HTU21D;50070;-32.946;-60.652;2022-08-03T00:20:38;16.86;65.98
63899;HTU21D;50070;-32.946;-60.652;2022-08-03T00:23:05;16.49;66.94
63899;HTU21D;50070;-32.946;-60.652;2022-08-03T00:25:33;16.82;65.84
63899;HTU21D;50070;-32.946;-60.652;2022-08-03T00:28:01;16.92;65.30
63899;HTU21D;50070;-32.946;-60.652;2022-08-03T00:30:28;17.03;64.91
63899;HTU21D;50070;-32.946;-60.652;2022-08-03T00:32:55;16.71;65.97
63899;HTU21D;50070;-32.946;-60.652;2022-08-03T00:35:22;16.71;65.84
63899;HTU21D;50070;-32.946;-60.652;2022-08-03T00:37:50;16.65;66.17
63899;HTU21D;50070;-32.946;-60.652;2022-08-03T00:40:18;16.61;66.35
63899;HTU21D;50070;-32.946;-60.652;2022-08-03T00:42:56;16.63;66.28
63899;HTU21D;50070;-32.946;-60.652;2022-08-03T00:45:28;16.81;65.65
63899;HTU21D;50070;-32.946;-60.652;2022-08-03T00:47:56;16.60;66.40
63899;HTU21D;50070;-32.946;-60.652;2022-08-03T00:50:24;16.77;65.95
63899;HTU21D;50070;-32.946;-60.652;2022-08-03T00:52:53;16.70;66.06
63899;HTU21D;50070;-32.946;-60.652;2022-08-03T00:55:20;16.80;65.56
63899;HTU21D;50070;-32.946;-60.652;2022-08-03T00:57:48;16.66;66.13
63899;HTU21D;50070;-32.946;-60.652;2022-08-03T01:00:18;16.56;66.76
63899;HTU21D;50070;-32.946;-60.652;2022-08-03T01:02:45;16.66;66.57
63899;HTU21D;50070;-32.946;-60.652;2022-08-03T01:05:12;16.75;66.40
63899;HTU21D;50070;-32.946;-60.652;2022-08-03T01:10:45;16.91;65.75
63899;HTU21D;50070;-32.946;-60.652;2022-08-03T01:16:30;16.66;66.53
63899;HTU21D;50070;-32.946;-60.652;2022-08-03T01:21:38;16.50;66.75
63899;HTU21D;50070;-32.946;-60.652;2022-08-03T01:29:56;16.12;68.36
63899;HTU21D;50070;-32.946;-60.652;2022-08-03T01:35:13;15.93;69.39
63899;HTU21D;50070;-32.946;-60.652;2022-08-03T01:37:49;15.85;69.55
63899;HTU21D;50070;-32.946;-60.652;2022-08-03T01:40:19;16.26;68.13
63899;HTU21D;50070;-32.946;-60.652;2022-08-03T01:42:47;16.27;67.78
63899;HTU21D;50070;-32.946;-60.652;2022-08-03T01:45:15;16.14;68.09
63899;HTU21D;50070;-32.946;-60.652;2022-08-03T01:47:46;16.00;68.77
63899;HTU21D;50070;-32.946;-60.652;2022-08-03T01:50:14;16.39;67.33
63899;HTU21D;50070;-32.946;-60.652;2022-08-03T01:52:43;16.20;67.85
63899;HTU21D;50070;-32.946;-60.652;2022-08-03T01:55:12;16.19;68.14
63899;HTU21D;50070;-32.946;-60.652;2022-08-03T01:57:42;16.04;68.70
63899;HTU21D;50070;-32.946;-60.652;2022-08-03T02:00:10;16.06;68.60
63899;HTU21D;50070;-32.946;-60.652;2022-08-03T02:02:38;15.88;69.36
63899;HTU21D;50070;-32.946;-60.652;2022-08-03T02:05:07;15.88;69.44
63899;HTU21D;50070;-32.946;-60.652;2022-08-03T02:07:36;16.02;69.07
63899;HTU21D;50070;-32.946;-60.652;2022-08-03T02:10:05;15.95;69.41
63899;HTU21D;50070;-32.946;-60.652;2022-08-03T02:12:35;16.19;68.41
63899;HTU21D;50070;-32.946;-60.652;2022-08-03T02:15:02;15.99;69.19
63899;HTU21D;50070;-32.946;-60.652;2022-08-03T02:17:30;16.11;68.73
63899;HTU21D;50070;-32.946;-60.652;2022-08-03T02:19:59;16.13;68.82
63899;HTU21D;50070;-32.946;-60.652;2022-08-03T02:22:27;16.04;68.87
63899;HTU21D;50070;-32.946;-60.652;2022-08-03T02:24:55;16.10;68.49
63899;HTU21D;50070;-32.946;-60.652;2022-08-03T02:27:23;16.16;68.46
63899;HTU21D;50070;-32.946;-60.652;2022-08-03T02:30:00;16.26;68.03
63899;HTU21D;50070;-32.946;-60.652;2022-08-03T02:32:34;16.13;68.74
63899;HTU21D;50070;-32.946;-60.652;2022-08-03T02:35:05;15.98;69.23
63899;HTU21D;50070;-32.946;-60.652;2022-08-03T02:37:43;15.96;69.45
63899;HTU21D;50070;-32.946;-60.652;2022-08-03T02:40:12;15.95;69.65
63899;HTU21D;50070;-32.946;-60.652;2022-08-03T02:42:41;16.04;69.45
63899;HTU21D;50070;-32.946;-60.652;2022-08-03T02:45:11;15.67;71.01
63899;HTU21D;50070;-32.946;-60.652;2022-08-03T02:47:40;15.82;70.47
63899;HTU21D;50070;-32.946;-60.652;2022-08-03T02:50:11;16.08;69.58
63899;HTU21D;50070;-32.946;-60.652;2022-08-03T02:52:39;16.00;69.75
63899;HTU21D;50070;-32.946;-60.652;2022-08-03T02:55:09;16.18;69.05
63899;HTU21D;50070;-32.946;-60.652;2022-08-03T02:57:36;15.87;70.35
63899;HTU21D;50070;-32.946;-60.652;2022-08-03T03:00:04;15.86;70.13
63899;HTU21D;50070;-32.946;-60.652;2022-08-03T03:02:32;15.82;70.30
63899;HTU21D;50070;-32.946;-60.652;2022-08-03T03:05:00;15.74;70.87
63899;HTU21D;50070;-32.946;-60.652;2022-08-03T03:07:28;15.78;70.64
63899;HTU21D;50070;-32.946;-60.652;2022-08-03T03:09:56;15.81;70.47
63899;HTU21D;50070;-32.946;-60.652;2022-08-03T03:12:24;16.04;69.61
63899;HTU21D;50070;-32.946;-60.652;2022-08-03T03:14:52;16.13;69.18
63899;HTU21D;50070;-32.946;-60.652;2022-08-03T03:17:20;16.28;68.49
63899;HTU21D;50070;-32.946;-60.652;2022-08-03T03:19:49;16.12;69.19
63899;HTU21D;50070;-32.946;-60.652;2022-08-03T03:22:16;16.22;68.71
63899;HTU21D;50070;-32.946;-60.652;2022-08-03T03:24:44;16.26;68.62
63899;HTU21D;50070;-32.946;-60.652;2022-08-03T03:27:13;16.26;68.52
63899;HTU21D;50070;-32.946;-60.652;2022-08-03T03:29:40;16.05;69.26
63899;HTU21D;50070;-32.946;-60.652;2022-08-03T03:32:07;16.02;69.29
63899;HTU21D;50070;-32.946;-60.652;2022-08-03T03:34:35;16.01;69.36
63899;HTU21D;50070;-32.946;-60.652;2022-08-03T03:37:02;16.22;68.54
63899;HTU21D;50070;-32.946;-60.652;2022-08-03T03:39:30;16.46;67.55
63899;HTU21D;50070;-32.946;-60.652;2022-08-03T03:41:58;16.59;66.78
63899;HTU21D;50070;-32.946;-60.652;2022-08-03T03:44:27;16.47;67.13
63899;HTU21D;50070;-32.946;-60.652;2022-08-03T03:46:56;16.57;66.78
63899;HTU21D;50070;-32.946;-60.652;2022-08-03T03:49:23;15.89;68.58
63899;HTU21D;50070;-32.946;-60.652;2022-08-03T03:51:54;16.19;67.38
63899;HTU21D;50070;-32.946;-60.652;2022-08-03T03:54:21;15.88;67.62
63899;HTU21D;50070;-32.946;-60.652;2022-08-03T03:56:47;16.00;66.59
63899;HTU21D;50070;-32.946;-60.652;2022-08-03T03:59:14;16.11;65.74
63899;HTU21D;50070;-32.946;-60.652;2022-08-03T04:01:42;16.13;65.82
63899;HTU21D;50070;-32.946;-60.652;2022-08-03T04:04:09;15.92;66.20
63899;HTU21D;50070;-32.946;-60.652;2022-08-03T04:06:54;15.31;67.91
63899;HTU21D;50070;-32.946;-60.652;2022-08-03T04:09:54;15.08;68.84
63899;HTU21D;50070;-32.946;-60.652;2022-08-03T04:12:40;15.10;68.81
63899;HTU21D;50070;-32.946;-60.652;2022-08-03T04:15:08;15.34;67.92
63899;HTU21D;50070;-32.946;-60.652;2022-08-03T04:17:35;15.47;66.98
63899;HTU21D;50070;-32.946;-60.652;2022-08-03T04:20:03;15.26;67.55
63899;HTU21D;50070;-32.946;-60.652;2022-08-03T04:22:32;15.51;66.68
63899;HTU21D;50070;-32.946;-60.652;2022-08-03T04:25:03;15.17;67.49
63899;HTU21D;50070;-32.946;-60.652;2022-08-03T04:27:35;15.52;66.15
63899;HTU21D;50070;-32.946;-60.652;2022-08-03T04:30:04;15.25;66.91
63899;HTU21D;50070;-32.946;-60.652;2022-08-03T04:32:31;14.73;69.00
63899;HTU21D;50070;-32.946;-60.652;2022-08-03T04:34:59;14.93;68.24
63899;HTU21D;50070;-32.946;-60.652;2022-08-03T04:39:53;15.22;67.51
63899;HTU21D;50070;-32.946;-60.652;2022-08-03T04:42:23;15.15;67.57
63899;HTU21D;50070;-32.946;-60.652;2022-08-03T04:44:50;15.44;66.17
63899;HTU21D;50070;-32.946;-60.652;2022-08-03T04:47:18;15.26;66.72
63899;HTU21D;50070;-32.946;-60.652;2022-08-03T04:49:46;15.30;66.54
63899;HTU21D;50070;-32.946;-60.652;2022-08-03T04:52:13;15.27;66.51
63899;HTU21D;50070;-32.946;-60.652;2022-08-03T04:54:44;14.81;67.97
63899;HTU21D;50070;-32.946;-60.652;2022-08-03T04:57:11;14.70;68.46
63899;HTU21D;50070;-32.946;-60.652;2022-08-03T04:59:38;14.64;68.93
63899;HTU21D;50070;-32.946;-60.652;2022-08-03T05:02:05;14.81;68.36
63899;HTU21D;50070;-32.946;-60.652;2022-08-03T05:04:32;14.93;67.74
63899;HTU21D;50070;-32.946;-60.652;2022-08-03T05:06:58;14.54;68.95
63899;HTU21D;50070;-32.946;-60.652;2022-08-03T05:09:25;14.36;70.04
63899;HTU21D;50070;-32.946;-60.652;2022-08-03T05:11:52;15.01;67.68
63899;HTU21D;50070;-32.946;-60.652;2022-08-03T05:14:19;14.88;68.28
63899;HTU21D;50070;-32.946;-60.652;2022-08-03T05:16:45;14.52;69.95
63899;HTU21D;50070;-32.946;-60.652;2022-08-03T05:19:12;14.49;70.11
63899;HTU21D;50070;-32.946;-60.652;2022-08-03T05:21:39;14.44;70.69
63899;HTU21D;50070;-32.946;-60.652;2022-08-03T05:24:06;14.88;68.81
63899;HTU21D;50070;-32.946;-60.652;2022-08-03T05:26:32;14.59;69.83
63899;HTU21D;50070;-32.946;-60.652;2022-08-03T05:28:59;14.20;71.36
63899;HTU21D;50070;-32.946;-60.652;2022-08-03T05:31:26;14.21;71.13
63899;HTU21D;50070;-32.946;-60.652;2022-08-03T05:33:53;14.44;70.34
63899;HTU21D;50070;-32.946;-60.652;2022-08-03T05:36:20;14.36;70.33
63899;HTU21D;50070;-32.946;-60.652;2022-08-03T05:38:47;14.27;70.70
63899;HTU21D;50070;-32.946;-60.652;2022-08-03T05:41:14;14.32;70.18
63899;HTU21D;50070;-32.946;-60.652;2022-08-03T05:43:40;14.10;70.87
63899;HTU21D;50070;-32.946;-60.652;2022-08-03T05:46:07;13.97;71.35
63899;HTU21D;50070;-32.946;-60.652;2022-08-03T05:48:34;14.11;70.63
63899;HTU21D;50070;-32.946;-60.652;2022-08-03T05:51:01;14.05;70.71
63899;HTU21D;50070;-32.946;-60.652;2022-08-03T05:53:32;14.38;69.22
63899;HTU21D;50070;-32.946;-60.652;2022-08-03T05:55:59;14.05;70.54
63899;HTU21D;50070;-32.946;-60.652;2022-08-03T05:58:26;14.12;70.24
63899;HTU21D;50070;-32.946;-60.652;2022-08-03T06:00:53;14.51;69.01
63899;HTU21D;50070;-32.946;-60.652;2022-08-03T06:03:20;14.48;68.67
63899;HTU21D;50070;-32.946;-60.652;2022-08-03T06:05:47;14.20;69.85
63899;HTU21D;50070;-32.946;-60.652;2022-08-03T06:08:13;14.48;68.83
63899;HTU21D;50070;-32.946;-60.652;2022-08-03T06:10:40;14.55;68.40
63899;HTU21D;50070;-32.946;-60.652;2022-08-03T06:13:06;14.43;68.85
63899;HTU21D;50070;-32.946;-60.652;2022-08-03T06:15:33;14.38;69.65
63899;HTU21D;50070;-32.946;-60.652;2022-08-03T06:18:00;14.41;69.23
63899;HTU21D;50070;-32.946;-60.652;2022-08-03T06:20:27;14.21;69.84
63899;HTU21D;50070;-32.946;-60.652;2022-08-03T06:22:54;14.17;70.07
63899;HTU21D;50070;-32.946;-60.652;2022-08-03T06:25:21;14.48;68.83
63899;HTU21D;50070;-32.946;-60.652;2022-08-03T06:27:47;14.47;68.72
63899;HTU21D;50070;-32.946;-60.652;2022-08-03T06:30:14;14.65;68.07
63899;HTU21D;50070;-32.946;-60.652;2022-08-03T06:32:42;14.19;69.59
63899;HTU21D;50070;-32.946;-60.652;2022-08-03T06:35:09;14.35;68.91
63899;HTU21D;50070;-32.946;-60.652;2022-08-03T06:37:49;14.62;67.97
63899;HTU21D;50070;-32.946;-60.652;2022-08-03T06:40:20;14.71;67.70
63899;HTU21D;50070;-32.946;-60.652;2022-08-03T06:42:57;14.45;68.46
63899;HTU21D;50070;-32.946;-60.652;2022-08-03T06:45:24;14.63;67.89
63899;HTU21D;50070;-32.946;-60.652;2022-08-03T06:48:01;14.68;67.49
63899;HTU21D;50070;-32.946;-60.652;2022-08-03T06:50:28;14.26;69.00
63899;HTU21D;50070;-32.946;-60.652;2022-08-03T06:52:55;14.32;68.81
63899;HTU21D;50070;-32.946;-60.652;2022-08-03T06:55:22;14.32;68.75
63899;HTU21D;50070;-32.946;-60.652;2022-08-03T06:57:48;14.53;68.04
63899;HTU21D;50070;-32.946;-60.652;2022-08-03T07:00:15;14.66;67.85
63899;HTU21D;50070;-32.946;-60.652;2022-08-03T07:02:42;14.42;68.54
63899;HTU21D;50070;-32.946;-60.652;2022-08-03T07:05:09;14.50;68.32
63899;HTU21D;50070;-32.946;-60.652;2022-08-03T07:07:36;14.57;68.14
63899;HTU21D;50070;-32.946;-60.652;2022-08-03T07:10:04;14.65;67.95
63899;HTU21D;50070;-32.946;-60.652;2022-08-03T07:12:31;14.71;67.69
63899;HTU21D;50070;-32.946;-60.652;2022-08-03T07:15:00;14.86;67.20
63899;HTU21D;50070;-32.946;-60.652;2022-08-03T07:17:28;14.72;67.74
63899;HTU21D;50070;-32.946;-60.652;2022-08-03T07:19:56;14.63;68.27
63899;HTU21D;50070;-32.946;-60.652;2022-08-03T07:22:23;14.88;67.55
63899;HTU21D;50070;-32.946;-60.652;2022-08-03T07:24:49;14.84;67.45
63899;HTU21D;50070;-32.946;-60.652;2022-08-03T07:27:16;14.89;67.68
63899;HTU21D;50070;-32.946;-60.652;2022-08-03T07:29:43;14.70;68.46
63899;HTU21D;50070;-32.946;-60.652;2022-08-03T07:32:10;14.80;68.26
63899;HTU21D;50070;-32.946;-60.652;2022-08-03T07:34:37;14.74;69.31
63899;HTU21D;50070;-32.946;-60.652;2022-08-03T07:37:03;14.77;69.51
63899;HTU21D;50070;-32.946;-60.652;2022-08-03T07:39:30;14.80;69.87
63899;HTU21D;50070;-32.946;-60.652;2022-08-03T07:41:57;15.03;68.73
63899;HTU21D;50070;-32.946;-60.652;2022-08-03T07:44:23;14.89;69.30
63899;HTU21D;50070;-32.946;-60.652;2022-08-03T07:46:50;14.77;70.03
63899;HTU21D;50070;-32.946;-60.652;2022-08-03T07:49:17;14.74;70.16
63899;HTU21D;50070;-32.946;-60.652;2022-08-03T07:51:44;15.09;68.68
63899;HTU21D;50070;-32.946;-60.652;2022-08-03T07:54:10;15.09;68.83
63899;HTU21D;50070;-32.946;-60.652;2022-08-03T07:56:37;14.71;69.88
63899;HTU21D;50070;-32.946;-60.652;2022-08-03T07:59:03;14.67;70.35
63899;HTU21D;50070;-32.946;-60.652;2022-08-03T08:01:30;14.52;71.06
63899;HTU21D;50070;-32.946;-60.652;2022-08-03T08:04:00;14.50;71.51
63899;HTU21D;50070;-32.946;-60.652;2022-08-03T08:06:27;14.41;71.95
63899;HTU21D;50070;-32.946;-60.652;2022-08-03T08:08:54;14.44;71.90
63899;HTU21D;50070;-32.946;-60.652;2022-08-03T08:11:24;14.44;72.18
63899;HTU21D;50070;-32.946;-60.652;2022-08-03T08:13:51;14.77;70.96
63899;HTU21D;50070;-32.946;-60.652;2022-08-03T08:16:17;14.78;70.83
63899;HTU21D;50070;-32.946;-60.652;2022-08-03T08:18:44;14.82;70.55
63899;HTU21D;50070;-32.946;-60.652;2022-08-03T08:21:11;14.91;70.35
63899;HTU21D;50070;-32.946;-60.652;2022-08-03T08:23:38;15.12;69.61
63899;HTU21D;50070;-32.946;-60.652;2022-08-03T08:26:05;14.70;71.30
63899;HTU21D;50070;-32.946;-60.652;2022-08-03T08:28:31;14.78;71.06
63899;HTU21D;50070;-32.946;-60.652;2022-08-03T08:30:58;14.98;70.52
63899;HTU21D;50070;-32.946;-60.652;2022-08-03T08:33:25;15.09;70.26
63899;HTU21D;50070;-32.946;-60.652;2022-08-03T08:35:52;14.22;74.43
63899;HTU21D;50070;-32.946;-60.652;2022-08-03T08:38:19;14.34;74.15
63899;HTU21D;50070;-32.946;-60.652;2022-08-03T08:40:47;14.53;73.61
63899;HTU21D;50070;-32.946;-60.652;2022-08-03T08:43:15;14.55;73.88
63899;HTU21D;50070;-32.946;-60.652;2022-08-03T08:45:41;14.65;74.02
63899;HTU21D;50070;-32.946;-60.652;2022-08-03T08:48:10;14.50;74.44
63899;HTU21D;50070;-32.946;-60.652;2022-08-03T08:50:38;14.35;75.48
63899;HTU21D;50070;-32.946;-60.652;2022-08-03T08:53:07;14.38;75.29
63899;HTU21D;50070;-32.946;-60.652;2022-08-03T08:55:37;14.62;74.29
63899;HTU21D;50070;-32.946;-60.652;2022-08-03T08:58:09;14.69;74.02
63899;HTU21D;50070;-32.946;-60.652;2022-08-03T09:00:38;14.58;74.57
63899;HTU21D;50070;-32.946;-60.652;2022-08-03T09:03:05;14.51;75.13
63899;HTU21D;50070;-32.946;-60.652;2022-08-03T09:05:32;14.48;75.16
63899;HTU21D;50070;-32.946;-60.652;2022-08-03T09:07:59;14.56;75.00
63899;HTU21D;50070;-32.946;-60.652;2022-08-03T09:10:26;14.47;75.41
63899;HTU21D;50070;-32.946;-60.652;2022-08-03T09:12:53;14.38;75.63
63899;HTU21D;50070;-32.946;-60.652;2022-08-03T09:15:25;14.27;76.57
63899;HTU21D;50070;-32.946;-60.652;2022-08-03T09:17:55;14.20;77.06
63899;HTU21D;50070;-32.946;-60.652;2022-08-03T09:20:24;14.24;77.00
63899;HTU21D;50070;-32.946;-60.652;2022-08-03T09:25:18;14.34;76.73
63899;HTU21D;50070;-32.946;-60.652;2022-08-03T09:27:45;14.42;76.37
63899;HTU21D;50070;-32.946;-60.652;2022-08-03T09:30:18;14.29;77.13
63899;HTU21D;50070;-32.946;-60.652;2022-08-03T09:32:46;14.24;77.63
63899;HTU21D;50070;-32.946;-60.652;2022-08-03T09:35:13;14.30;77.37
63899;HTU21D;50070;-32.946;-60.652;2022-08-03T09:37:40;14.32;77.46
63899;HTU21D;50070;-32.946;-60.652;2022-08-03T09:40:07;14.30;77.47
63899;HTU21D;50070;-32.946;-60.652;2022-08-03T09:42:34;14.34;77.47
63899;HTU21D;50070;-32.946;-60.652;2022-08-03T09:45:04;14.40;77.15
63899;HTU21D;50070;-32.946;-60.652;2022-08-03T09:47:33;14.58;76.50
63899;HTU21D;50070;-32.946;-60.652;2022-08-03T09:50:07;14.62;76.53
63899;HTU21D;50070;-32.946;-60.652;2022-08-03T09:52:37;14.54;76.91
63899;HTU21D;50070;-32.946;-60.652;2022-08-03T09:55:12;14.59;76.99
63899;HTU21D;50070;-32.946;-60.652;2022-08-03T09:57:40;14.75;76.43
63899;HTU21D;50070;-32.946;-60.652;2022-08-03T10:00:13;14.77;76.30
63899;HTU21D;50070;-32.946;-60.652;2022-08-03T10:02:41;14.64;76.94
63899;HTU21D;50070;-32.946;-60.652;2022-08-03T10:05:10;14.73;76.64
63899;HTU21D;50070;-32.946;-60.652;2022-08-03T10:07:45;14.62;77.08
63899;HTU21D;50070;-32.946;-60.652;2022-08-03T10:10:14;14.69;76.76
63899;HTU21D;50070;-32.946;-60.652;2022-08-03T10:12:42;14.69;76.73
63899;HTU21D;50070;-32.946;-60.652;2022-08-03T10:15:09;14.82;76.26
63899;HTU21D;50070;-32.946;-60.652;2022-08-03T10:17:37;15.04;75.41
63899;HTU21D;50070;-32.946;-60.652;2022-08-03T10:20:05;15.12;73.29
63899;HTU21D;50070;-32.946;-60.652;2022-08-03T10:22:35;15.12;72.82
63899;HTU21D;50070;-32.946;-60.652;2022-08-03T10:27:37;15.08;72.71
63899;HTU21D;50070;-32.946;-60.652;2022-08-03T10:30:06;14.51;74.70
63899;HTU21D;50070;-32.946;-60.652;2022-08-03T10:32:37;14.48;75.23
63899;HTU21D;50070;-32.946;-60.652;2022-08-03T10:35:11;14.57;74.70
63899;HTU21D;50070;-32.946;-60.652;2022-08-03T10:38:05;14.95;73.22
63899;HTU21D;50070;-32.946;-60.652;2022-08-03T10:40:31;14.75;72.32
63899;HTU21D;50070;-32.946;-60.652;2022-08-03T10:43:09;14.47;72.42
63899;HTU21D;50070;-32.946;-60.652;2022-08-03T10:45:41;13.98;73.37
63899;HTU21D;50070;-32.946;-60.652;2022-08-03T10:48:09;13.81;73.48
63899;HTU21D;50070;-32.946;-60.652;2022-08-03T10:50:36;14.07;72.33
63899;HTU21D;50070;-32.946;-60.652;2022-08-03T10:53:05;13.89;73.15
63899;HTU21D;50070;-32.946;-60.652;2022-08-03T10:55:43;14.18;72.03
63899;HTU21D;50070;-32.946;-60.652;2022-08-03T11:01:11;14.03;72.57
63899;HTU21D;50070;-32.946;-60.652;2022-08-03T11:06:23;13.53;73.42
63899;HTU21D;50070;-32.946;-60.652;2022-08-03T11:11:40;13.89;72.09
63899;HTU21D;50070;-32.946;-60.652;2022-08-03T11:14:11;13.95;72.02
63899;HTU21D;50070;-32.946;-60.652;2022-08-03T11:16:44;13.65;72.41
63899;HTU21D;50070;-32.946;-60.652;2022-08-03T11:19:16;13.44;73.05
63899;HTU21D;50070;-32.946;-60.652;2022-08-03T11:21:54;13.22;73.87
63899;HTU21D;50070;-32.946;-60.652;2022-08-03T11:30:00;13.63;72.59
63899;HTU21D;50070;-32.946;-60.652;2022-08-03T11:35:10;13.90;71.66
63899;HTU21D;50070;-32.946;-60.652;2022-08-03T11:38:04;13.84;71.76
63899;HTU21D;50070;-32.946;-60.652;2022-08-03T11:40:49;13.93;71.67
63899;HTU21D;50070;-32.946;-60.652;2022-08-03T11:48:36;13.83;72.06
63899;HTU21D;50070;-32.946;-60.652;2022-08-03T11:51:07;14.01;71.07
63899;HTU21D;50070;-32.946;-60.652;2022-08-03T11:53:44;13.78;72.03
63899;HTU21D;50070;-32.946;-60.652;2022-08-03T11:56:12;13.59;72.41
63899;HTU21D;50070;-32.946;-60.652;2022-08-03T11:58:46;13.46;73.19
63899;HTU21D;50070;-32.946;-60.652;2022-08-03T12:01:19;13.51;73.25
63899;HTU21D;50070;-32.946;-60.652;2022-08-03T12:03:46;13.48;73.55
63899;HTU21D;50070;-32.946;-60.652;2022-08-03T12:06:14;13.78;72.79
63899;HTU21D;50070;-32.946;-60.652;2022-08-03T12:08:43;13.65;73.23
63899;HTU21D;50070;-32.946;-60.652;2022-08-03T12:11:13;13.38;74.81
63899;HTU21D;50070;-32.946;-60.652;2022-08-03T12:13:43;13.41;74.86
63899;HTU21D;50070;-32.946;-60.652;2022-08-03T12:16:19;13.50;74.97
63899;HTU21D;50070;-32.946;-60.652;2022-08-03T12:19:03;13.46;74.98
63899;HTU21D;50070;-32.946;-60.652;2022-08-03T12:21:30;13.39;75.15
63899;HTU21D;50070;-32.946;-60.652;2022-08-03T12:23:59;13.75;73.93
63899;HTU21D;50070;-32.946;-60.652;2022-08-03T12:26:26;13.70;74.30
63899;HTU21D;50070;-32.946;-60.652;2022-08-03T12:28:53;13.69;74.12
63899;HTU21D;50070;-32.946;-60.652;2022-08-03T12:31:20;13.80;74.05
63899;HTU21D;50070;-32.946;-60.652;2022-08-03T12:34:05;13.67;74.17
63899;HTU21D;50070;-32.946;-60.652;2022-08-03T12:36:34;14.18;72.38
63899;HTU21D;50070;-32.946;-60.652;2022-08-03T12:39:04;14.34;71.58
63899;HTU21D;50070;-32.946;-60.652;2022-08-03T12:41:33;14.12;72.16
63899;HTU21D;50070;-32.946;-60.652;2022-08-03T12:44:01;14.08;72.46
63899;HTU21D;50070;-32.946;-60.652;2022-08-03T12:46:34;14.07;72.37
63899;HTU21D;50070;-32.946;-60.652;2022-08-03T12:49:02;13.96;72.96
63899;HTU21D;50070;-32.946;-60.652;2022-08-03T12:51:32;14.34;71.61
63899;HTU21D;50070;-32.946;-60.652;2022-08-03T12:54:00;14.24;71.83
63899;HTU21D;50070;-32.946;-60.652;2022-08-03T12:56:27;14.27;71.65
63899;HTU21D;50070;-32.946;-60.652;2022-08-03T12:58:53;14.19;71.93
63899;HTU21D;50070;-32.946;-60.652;2022-08-03T13:01:20;13.99;72.79
63899;HTU21D;50070;-32.946;-60.652;2022-08-03T13:03:52;13.97;72.69
63899;HTU21D;50070;-32.946;-60.652;2022-08-03T13:06:22;13.81;73.38
63899;HTU21D;50070;-32.946;-60.652;2022-08-03T13:09:04;14.12;72.35
63899;HTU21D;50070;-32.946;-60.652;2022-08-03T13:11:31;14.21;71.96
63899;HTU21D;50070;-32.946;-60.652;2022-08-03T13:13:58;14.08;72.36
63899;HTU21D;50070;-32.946;-60.652;2022-08-03T13:16:25;13.99;72.96
63899;HTU21D;50070;-32.946;-60.652;2022-08-03T13:18:51;13.98;72.98
63899;HTU21D;50070;-32.946;-60.652;2022-08-03T13:21:19;13.94;73.13
63899;HTU21D;50070;-32.946;-60.652;2022-08-03T13:23:47;13.85;73.59
63899;HTU21D;50070;-32.946;-60.652;2022-08-03T13:26:13;13.81;74.00
63899;HTU21D;50070;-32.946;-60.652;2022-08-03T13:28:41;13.97;73.22
63899;HTU21D;50070;-32.946;-60.652;2022-08-03T13:31:07;14.28;72.35
63899;HTU21D;50070;-32.946;-60.652;2022-08-03T13:33:34;14.04;73.28
63899;HTU21D;50070;-32.946;-60.652;2022-08-03T13:36:01;14.08;73.32
63899;HTU21D;50070;-32.946;-60.652;2022-08-03T13:38:28;14.09;73.25
63899;HTU21D;50070;-32.946;-60.652;2022-08-03T13:40:55;14.10;73.41
63899;HTU21D;50070;-32.946;-60.652;2022-08-03T13:43:21;13.98;73.87
63899;HTU21D;50070;-32.946;-60.652;2022-08-03T13:45:48;14.12;73.74
63899;HTU21D;50070;-32.946;-60.652;2022-08-03T13:48:15;14.45;72.42
63899;HTU21D;50070;-32.946;-60.652;2022-08-03T13:50:42;14.20;73.26
63899;HTU21D;50070;-32.946;-60.652;2022-08-03T13:53:09;14.24;73.22
63899;HTU21D;50070;-32.946;-60.652;2022-08-03T13:55:35;14.26;73.13
63899;HTU21D;50070;-32.946;-60.652;2022-08-03T13:58:02;14.38;72.51
63899;HTU21D;50070;-32.946;-60.652;2022-08-03T14:00:29;14.25;73.16
63899;HTU21D;50070;-32.946;-60.652;2022-08-03T14:02:57;14.47;72.29
63899;HTU21D;50070;-32.946;-60.652;2022-08-03T14:05:24;14.54;72.14
63899;HTU21D;50070;-32.946;-60.652;2022-08-03T14:07:51;14.63;71.64
63899;HTU21D;50070;-32.946;-60.652;2022-08-03T14:10:18;14.32;72.75
63899;HTU21D;50070;-32.946;-60.652;2022-08-03T14:12:45;14.38;72.49
63899;HTU21D;50070;-32.946;-60.652;2022-08-03T14:15:11;14.48;72.19
63899;HTU21D;50070;-32.946;-60.652;2022-08-03T14:17:39;14.59;71.68
63899;HTU21D;50070;-32.946;-60.652;2022-08-03T14:20:07;14.73;71.12
63899;HTU21D;50070;-32.946;-60.652;2022-08-03T14:22:34;14.57;71.74
63899;HTU21D;50070;-32.946;-60.652;2022-08-03T14:25:01;14.66;71.74
63899;HTU21D;50070;-32.946;-60.652;2022-08-03T14:27:28;14.80;71.09
63899;HTU21D;50070;-32.946;-60.652;2022-08-03T14:29:54;14.71;71.59
63899;HTU21D;50070;-32.946;-60.652;2022-08-03T14:32:25;14.58;72.29
63899;HTU21D;50070;-32.946;-60.652;2022-08-03T14:34:52;14.64;72.23
63899;HTU21D;50070;-32.946;-60.652;2022-08-03T14:37:19;14.60;72.38
63899;HTU21D;50070;-32.946;-60.652;2022-08-03T14:39:46;14.68;72.20
63899;HTU21D;50070;-32.946;-60.652;2022-08-03T14:42:14;14.79;71.93
63899;HTU21D;50070;-32.946;-60.652;2022-08-03T14:44:42;14.70;72.35
63899;HTU21D;50070;-32.946;-60.652;2022-08-03T14:47:09;14.67;72.28
63899;HTU21D;50070;-32.946;-60.652;2022-08-03T14:49:36;14.87;71.69
63899;HTU21D;50070;-32.946;-60.652;2022-08-03T14:52:04;14.54;72.37
63899;HTU21D;50070;-32.946;-60.652;2022-08-03T14:54:31;14.77;71.67
63899;HTU21D;50070;-32.946;-60.652;2022-08-03T14:56:57;15.03;70.62
63899;HTU21D;50070;-32.946;-60.652;2022-08-03T14:59:25;15.02;70.68
63899;HTU21D;50070;-32.946;-60.652;2022-08-03T15:01:52;14.93;70.92
63899;HTU21D;50070;-32.946;-60.652;2022-08-03T15:04:20;15.03;70.58
63899;HTU21D;50070;-32.946;-60.652;2022-08-03T15:06:47;15.18;70.05
63899;HTU21D;50070;-32.946;-60.652;2022-08-03T15:09:14;15.09;70.33
63899;HTU21D;50070;-32.946;-60.652;2022-08-03T15:11:41;15.07;70.48
63899;HTU21D;50070;-32.946;-60.652;2022-08-03T15:14:08;15.19;69.97
63899;HTU21D;50070;-32.946;-60.652;2022-08-03T15:16:35;15.24;69.97
63899;HTU21D;50070;-32.946;-60.652;2022-08-03T15:19:02;15.36;69.74
63899;HTU21D;50070;-32.946;-60.652;2022-08-03T15:21:29;15.52;69.33
63899;HTU21D;50070;-32.946;-60.652;2022-08-03T15:23:56;15.37;69.97
63899;HTU21D;50070;-32.946;-60.652;2022-08-03T15:26:23;15.31;70.31
63899;HTU21D;50070;-32.946;-60.652;2022-08-03T15:28:50;15.51;69.81
63899;HTU21D;50070;-32.946;-60.652;2022-08-03T15:31:21;15.66;69.23